Terminal Aerodrome Forecast
Issued by NWS

Home | Current Version | Previous Version | Text Only | Print | Product List | Glossary On
Versions: 1 2 3 4 5 6 7 8 9 10 11 12 13 14 15 16 17 18 19 20 21 22 23 24 25 26 27 28 29 30
000
FTUS41 KPBZ 280820 AAP
TAFLBE
TAF AMD
KLBE 280820Z 2808/2906 13007KT P6SM -RA OVC100
      TEMPO 2808/2810 4SM -RA
     FM281200 11010G18KT 6SM -RA OVC010
     FM282000 22012G25KT P6SM BKN035
     FM290100 19004KT P6SM SCT120=

USA.gov is the U.S. government's official web portal to all federal, state and local government web resources and services.